createdAt,value
2022-09-28T00:01:15.533Z,7.49
2022-09-28T00:03:42.422Z,7.56
2022-09-28T00:06:12.474Z,7.64
2022-09-28T00:08:39.348Z,7.53
2022-09-28T00:11:07.449Z,7.56
2022-09-28T00:13:35.208Z,7.53
2022-09-28T00:16:11.716Z,7.46
2022-09-28T00:18:38.306Z,7.48
2022-09-28T00:21:08.751Z,7.49
2022-09-28T00:23:56.263Z,7.73
2022-09-28T00:26:23.189Z,7.69
2022-09-28T00:28:54.695Z,7.73
2022-09-28T00:31:22.217Z,7.67
2022-09-28T00:33:58.092Z,7.69
2022-09-28T00:36:26.992Z,7.59
2022-09-28T00:38:57.708Z,7.68
2022-09-28T00:41:26.028Z,7.70
2022-09-28T00:43:54.100Z,7.67
2022-09-28T00:46:34.930Z,7.75
2022-09-28T00:49:08.793Z,7.65
2022-09-28T00:51:37.807Z,7.63
2022-09-28T00:54:07.680Z,7.66
2022-09-28T00:56:40.282Z,7.75
2022-09-28T00:59:08.750Z,7.76
2022-09-28T01:01:36.013Z,7.73
2022-09-28T01:04:04.836Z,7.77
2022-09-28T01:06:35.981Z,7.72
2022-09-28T01:09:07.426Z,7.77
2022-09-28T01:11:38.393Z,7.87
2022-09-28T01:14:09.271Z,7.71
2022-09-28T01:16:54.648Z,7.77
2022-09-28T01:19:46.609Z,7.78
2022-09-28T01:22:23.749Z,7.81
2022-09-28T01:24:59.680Z,7.82
2022-09-28T01:27:39.456Z,7.84
2022-09-28T01:30:07.858Z,7.88
2022-09-28T01:33:09.572Z,7.87
2022-09-28T01:35:51.495Z,7.99
2022-09-28T01:38:37.000Z,7.96
2022-09-28T01:41:05.302Z,7.87
2022-09-28T01:43:40.834Z,7.85
2022-09-28T01:46:19.312Z,7.86
2022-09-28T01:48:50.341Z,7.87
2022-09-28T01:51:30.579Z,7.89
2022-09-28T01:54:05.755Z,7.82
2022-09-28T01:56:52.065Z,7.71
2022-09-28T01:59:24.773Z,7.61
2022-09-28T02:01:57.445Z,7.55
2022-09-28T02:04:32.560Z,7.43
2022-09-28T02:07:07.603Z,7.38
2022-09-28T02:09:40.407Z,7.44
2022-09-28T02:12:15.678Z,7.38
2022-09-28T02:14:45.538Z,7.30
2022-09-28T02:17:12.796Z,7.43
2022-09-28T02:19:41.248Z,7.45
2022-09-28T02:22:23.844Z,7.50
2022-09-28T02:25:11.356Z,7.53
2022-09-28T02:27:50.655Z,7.51
2022-09-28T02:30:18.234Z,7.53
2022-09-28T02:32:47.942Z,7.46
2022-09-28T02:35:17.453Z,7.32
2022-09-28T02:37:45.828Z,7.23
2022-09-28T02:40:34.183Z,7.19
2022-09-28T02:43:24.603Z,7.15
2022-09-28T02:46:13.033Z,7.15
2022-09-28T02:49:17.471Z,7.30
2022-09-28T02:52:02.357Z,7.30
2022-09-28T02:55:09.583Z,7.21
2022-09-28T02:57:57.453Z,7.23
2022-09-28T03:00:24.807Z,7.31
2022-09-28T03:02:57.557Z,7.35
2022-09-28T03:05:36.194Z,7.41
2022-09-28T03:08:21.051Z,7.30
2022-09-28T03:11:03.071Z,7.26
2022-09-28T03:13:31.750Z,7.32
2022-09-28T03:16:14.291Z,7.32
2022-09-28T03:18:44.073Z,7.34
2022-09-28T03:21:14.789Z,7.32
2022-09-28T03:23:42.751Z,7.31
2022-09-28T03:26:13.802Z,7.30
2022-09-28T03:28:40.763Z,7.48
2022-09-28T03:31:11.318Z,7.49
2022-09-28T03:33:37.940Z,7.46
2022-09-28T03:36:04.664Z,7.44
2022-09-28T03:38:31.428Z,7.45
2022-09-28T03:41:00.454Z,7.48
2022-09-28T03:43:32.276Z,7.62
2022-09-28T03:46:02.446Z,7.58
2022-09-28T03:48:33.833Z,7.58
2022-09-28T03:51:03.858Z,7.55
2022-09-28T03:53:31.101Z,7.55
2022-09-28T03:56:05.594Z,7.70
2022-09-28T03:58:32.985Z,7.67
2022-09-28T04:01:17.649Z,7.56
2022-09-28T04:03:46.923Z,7.78
2022-09-28T04:06:13.937Z,7.59
2022-09-28T04:08:40.573Z,7.61
2022-09-28T04:11:08.272Z,7.61
2022-09-28T04:13:34.989Z,7.56
2022-09-28T04:16:02.019Z,7.59
2022-09-28T04:18:33.028Z,7.56
2022-09-28T04:21:11.965Z,7.56
2022-09-28T04:23:48.788Z,7.61
2022-09-28T04:26:24.064Z,7.66
2022-09-28T04:29:09.748Z,7.66
2022-09-28T04:31:45.764Z,7.58
2022-09-28T04:34:17.217Z,7.83
2022-09-28T04:36:45.203Z,7.72
2022-09-28T04:39:14.201Z,7.51
2022-09-28T04:41:43.293Z,7.54
2022-09-28T04:44:10.093Z,7.49
2022-09-28T04:46:36.717Z,7.50
2022-09-28T04:49:24.788Z,7.61
2022-09-28T04:52:18.209Z,7.54
2022-09-28T04:54:48.379Z,7.45
2022-09-28T04:57:16.096Z,7.38
2022-09-28T04:59:42.672Z,7.43
2022-09-28T05:02:09.349Z,7.43
2022-09-28T05:05:05.646Z,7.43
2022-09-28T05:07:47.721Z,7.43
2022-09-28T05:10:14.472Z,7.39
2022-09-28T05:12:41.095Z,7.43
2022-09-28T05:15:07.997Z,7.49
2022-09-28T05:17:34.639Z,7.48
2022-09-28T05:20:20.424Z,7.53
2022-09-28T05:22:46.988Z,7.68
2022-09-28T05:25:13.608Z,7.56
2022-09-28T05:28:03.304Z,7.67
2022-09-28T05:30:49.863Z,7.57
2022-09-28T05:33:34.850Z,7.53
2022-09-28T05:36:12.667Z,7.48
2022-09-28T05:38:39.328Z,7.51
2022-09-28T05:41:06.972Z,7.49
2022-09-28T05:43:33.833Z,7.50
2022-09-28T05:46:03.281Z,7.45
2022-09-28T05:48:30.459Z,7.49
2022-09-28T05:50:58.761Z,7.43
2022-09-28T05:53:26.493Z,7.49
2022-09-28T05:55:53.144Z,7.60
2022-09-28T05:58:19.744Z,7.57
2022-09-28T06:00:46.390Z,7.61
2022-09-28T06:03:14.358Z,7.52
2022-09-28T06:05:41.143Z,7.48
2022-09-28T06:08:12.513Z,7.49
2022-09-28T06:10:43.646Z,7.49
2022-09-28T06:13:11.939Z,7.45
2022-09-28T06:15:42.503Z,7.40
2022-09-28T06:18:14.784Z,7.45
2022-09-28T06:20:54.524Z,7.50
2022-09-28T06:23:30.656Z,7.45
2022-09-28T06:25:59.228Z,7.41
2022-09-28T06:28:26.907Z,7.42
2022-09-28T06:30:54.075Z,7.49
2022-09-28T06:33:21.891Z,7.47
2022-09-28T06:35:48.465Z,7.44
2022-09-28T06:38:15.125Z,7.48
2022-09-28T06:40:41.792Z,7.61
2022-09-28T06:43:14.977Z,7.67
2022-09-28T06:46:17.282Z,7.70
2022-09-28T06:48:50.102Z,7.79
2022-09-28T06:51:30.936Z,7.79
2022-09-28T06:54:02.443Z,7.79
2022-09-28T06:56:47.519Z,7.72
2022-09-28T06:59:14.247Z,7.74
2022-09-28T07:01:40.948Z,7.73
2022-09-28T07:04:31.404Z,7.71
2022-09-28T07:07:16.344Z,7.71
2022-09-28T07:10:01.574Z,7.71
2022-09-28T07:12:48.858Z,7.64
2022-09-28T07:15:33.644Z,7.64
2022-09-28T07:18:03.753Z,7.63
2022-09-28T07:20:40.277Z,7.66
2022-09-28T07:23:18.608Z,7.69
2022-09-28T07:26:08.360Z,7.68
2022-09-28T07:29:00.180Z,7.73
2022-09-28T07:31:54.923Z,7.62
2022-09-28T07:34:58.933Z,7.64
2022-09-28T07:37:58.120Z,7.70
2022-09-28T07:40:47.457Z,7.74
2022-09-28T07:43:20.361Z,7.71
2022-09-28T07:45:49.841Z,7.77
2022-09-28T07:48:17.519Z,7.72
2022-09-28T07:50:55.091Z,7.72
2022-09-28T07:53:34.411Z,7.79
2022-09-28T07:56:17.206Z,7.88
2022-09-28T07:59:22.103Z,7.81
2022-09-28T08:02:13.450Z,7.99
2022-09-28T08:04:40.944Z,7.96
2022-09-28T08:07:11.826Z,7.96
2022-09-28T08:09:39.610Z,7.98
2022-09-28T08:12:19.644Z,7.94
2022-09-28T08:14:57.438Z,7.96
2022-09-28T08:17:47.232Z,7.98
2022-09-28T08:20:52.912Z,8.02
2022-09-28T08:23:20.328Z,8.08
2022-09-28T08:25:51.367Z,8.21
2022-09-28T08:28:18.877Z,8.20
2022-09-28T08:30:48.366Z,8.13
2022-09-28T08:33:34.480Z,8.14
2022-09-28T08:36:20.607Z,8.09
2022-09-28T08:39:10.083Z,8.13
2022-09-28T08:42:05.082Z,8.10
2022-09-28T08:44:58.512Z,8.12
2022-09-28T08:48:38.165Z,8.15
2022-09-28T08:51:19.107Z,8.14
2022-09-28T08:54:08.090Z,8.16
2022-09-28T08:56:53.037Z,8.07
2022-09-28T08:59:26.696Z,8.09
2022-09-28T09:02:03.562Z,8.14
2022-09-28T09:04:33.751Z,8.08
2022-09-28T09:07:35.631Z,8.22
2022-09-28T09:10:22.323Z,8.01
2022-09-28T09:13:03.132Z,7.78
2022-09-28T09:15:55.166Z,7.63
2022-09-28T09:19:10.772Z,7.52
2022-09-28T09:21:56.003Z,7.45
2022-09-28T09:24:38.263Z,7.52
2022-09-28T09:27:24.999Z,7.40
2022-09-28T09:30:11.436Z,7.46
2022-09-28T09:32:47.856Z,7.38
2022-09-28T09:35:51.951Z,7.40
2022-09-28T09:38:39.799Z,7.51
2022-09-28T09:41:46.582Z,7.62
2022-09-28T09:44:35.006Z,7.68
2022-09-28T09:47:24.438Z,7.70
2022-09-28T09:49:58.375Z,7.65
2022-09-28T09:55:29.687Z,7.74
2022-09-28T09:58:29.055Z,7.84
2022-09-28T10:01:13.548Z,7.87
2022-09-28T10:04:21.019Z,8.02
2022-09-28T10:06:51.811Z,8.07
2022-09-28T10:09:27.949Z,8.08
2022-09-28T10:12:01.583Z,8.01
2022-09-28T10:14:47.932Z,8.03
2022-09-28T10:20:39.897Z,7.91
2022-09-28T10:23:25.707Z,7.89
2022-09-28T10:25:56.693Z,8.07
2022-09-28T10:28:34.122Z,8.12
2022-09-28T10:31:37.173Z,8.12
2022-09-28T10:34:17.014Z,8.16
2022-09-28T10:37:03.339Z,8.34
2022-09-28T10:39:53.329Z,8.39
2022-09-28T10:42:28.222Z,8.42
2022-09-28T10:45:13.791Z,8.47
2022-09-28T10:47:44.656Z,8.68
2022-09-28T10:50:27.811Z,9.00
2022-09-28T10:53:22.913Z,9.13
2022-09-28T10:56:20.160Z,9.03
2022-09-28T10:58:48.893Z,9.39
2022-09-28T11:01:34.617Z,9.81
2022-09-28T11:04:07.564Z,9.81
2022-09-28T11:06:41.793Z,9.88
2022-09-28T11:09:22.653Z,9.50
2022-09-28T11:11:49.833Z,9.18
2022-09-28T11:14:23.316Z,9.09
2022-09-28T11:17:14.688Z,9.02
2022-09-28T11:19:42.201Z,9.01
2022-09-28T11:22:52.122Z,9.11
2022-09-28T11:25:25.998Z,9.00
2022-09-28T11:27:52.723Z,9.27
2022-09-28T11:30:44.347Z,9.22
2022-09-28T11:33:30.658Z,9.31
2022-09-28T11:36:38.694Z,9.43
2022-09-28T11:39:27.728Z,9.63
2022-09-28T11:42:40.692Z,9.63
2022-09-28T11:45:34.266Z,9.43
2022-09-28T11:48:04.915Z,9.34
2022-09-28T11:50:39.897Z,9.39
2022-09-28T11:53:18.660Z,9.32
2022-09-28T11:56:17.324Z,9.39
2022-09-28T11:58:48.962Z,9.52
2022-09-28T12:01:30.077Z,9.69
2022-09-28T12:04:31.990Z,9.73
2022-09-28T12:07:03.472Z,9.81
2022-09-28T12:09:59.977Z,9.81
2022-09-28T12:13:01.175Z,9.81
2022-09-28T12:16:23.007Z,9.57
2022-09-28T12:21:30.321Z,9.74
2022-09-28T12:24:03.671Z,9.59
2022-09-28T12:26:43.949Z,9.56
2022-09-28T12:29:18.566Z,9.65
2022-09-28T12:32:23.964Z,9.57
2022-09-28T12:34:50.839Z,9.47
2022-09-28T12:37:40.096Z,9.49
2022-09-28T12:40:18.399Z,9.75
2022-09-28T12:43:12.543Z,9.82
2022-09-28T12:46:14.178Z,9.78
2022-09-28T12:49:43.675Z,9.76
2022-09-28T12:51:52.811Z,9.80
2022-09-28T12:54:55.036Z,9.74
2022-09-28T12:57:39.673Z,9.80
2022-09-28T13:00:15.890Z,9.54
2022-09-28T13:02:42.411Z,9.32
2022-09-28T13:05:50.531Z,9.05
2022-09-28T13:08:46.286Z,9.09
2022-09-28T13:11:31.934Z,9.04
2022-09-28T13:14:30.806Z,9.00
2022-09-28T13:17:26.364Z,8.90
2022-09-28T13:19:52.845Z,8.86
2022-09-28T13:22:44.183Z,8.81
2022-09-28T13:25:17.914Z,8.91
2022-09-28T13:27:57.417Z,8.80
2022-09-28T13:30:28.280Z,8.85
2022-09-28T13:33:01.492Z,8.84
2022-09-28T13:35:28.888Z,8.74
2022-09-28T13:38:17.413Z,8.60
2022-09-28T13:41:06.092Z,8.61
2022-09-28T13:43:54.782Z,8.52
2022-09-28T13:46:44.555Z,8.59
2022-09-28T13:49:32.739Z,8.52
2022-09-28T13:52:05.104Z,8.36
2022-09-28T13:54:42.001Z,8.33
2022-09-28T13:57:20.368Z,8.20
2022-09-28T14:00:02.876Z,8.31
2022-09-28T14:02:46.739Z,8.16
2022-09-28T14:05:34.259Z,8.10
2022-09-28T14:08:10.764Z,8.09
2022-09-28T14:10:51.649Z,8.21
2022-09-28T14:13:56.992Z,8.33
2022-09-28T14:16:31.223Z,8.29
2022-09-28T14:19:02.363Z,8.38
2022-09-28T14:22:06.690Z,8.41
2022-09-28T14:24:38.997Z,8.37
2022-09-28T14:27:17.478Z,8.40
2022-09-28T14:29:44.465Z,8.39
2022-09-28T14:32:11.016Z,8.42
2022-09-28T14:34:47.629Z,8.30
2022-09-28T14:37:55.119Z,8.15
2022-09-28T14:40:49.630Z,8.17
2022-09-28T14:43:26.141Z,8.05
2022-09-28T14:46:07.820Z,8.05
2022-09-28T14:49:01.767Z,7.97
2022-09-28T14:51:31.030Z,7.95
2022-09-28T14:54:12.724Z,7.89
2022-09-28T14:57:08.733Z,7.92
2022-09-28T14:59:43.533Z,8.01
2022-09-28T15:02:36.205Z,8.03
2022-09-28T15:05:18.340Z,8.03
2022-09-28T15:07:52.383Z,7.91
2022-09-28T15:10:27.307Z,7.86
2022-09-28T15:12:57.110Z,7.84
2022-09-28T15:15:31.696Z,7.92
2022-09-28T15:18:18.596Z,7.85
2022-09-28T15:20:49.926Z,7.80
2022-09-28T15:23:36.362Z,7.83
2022-09-28T15:26:07.067Z,7.77
2022-09-28T15:28:35.440Z,7.83
2022-09-28T15:31:04.695Z,7.82
2022-09-28T15:33:52.929Z,7.85
2022-09-28T15:36:28.789Z,7.90
2022-09-28T15:39:06.844Z,7.80
2022-09-28T15:41:34.096Z,7.92
2022-09-28T15:44:12.603Z,7.95
2022-09-28T15:46:47.786Z,7.98
2022-09-28T15:49:26.256Z,7.98
2022-09-28T15:51:56.066Z,7.84
2022-09-28T15:54:42.751Z,7.84
2022-09-28T15:57:30.412Z,7.79
2022-09-28T15:59:57.087Z,7.75
2022-09-28T16:02:27.025Z,7.71
2022-09-28T16:04:59.052Z,7.72
2022-09-28T16:07:30.104Z,7.62
2022-09-28T16:10:00.991Z,7.63
2022-09-28T16:12:36.784Z,7.62
2022-09-28T16:15:26.970Z,7.52
2022-09-28T16:18:04.240Z,7.51
2022-09-28T16:20:32.386Z,7.44
2022-09-28T16:23:06.020Z,7.36
2022-09-28T16:25:37.112Z,7.36
2022-09-28T16:28:04.903Z,7.27
2022-09-28T16:30:33.517Z,7.27
2022-09-28T16:33:06.626Z,7.33
2022-09-28T16:35:50.903Z,7.20
2022-09-28T16:38:19.171Z,7.27
2022-09-28T16:40:50.621Z,7.14
2022-09-28T16:43:20.297Z,7.15
2022-09-28T16:45:46.954Z,7.16
2022-09-28T16:48:16.111Z,7.18
2022-09-28T16:50:42.656Z,7.23
2022-09-28T16:53:33.327Z,7.14
2022-09-28T16:56:00.774Z,7.17
2022-09-28T16:58:28.784Z,7.17
2022-09-28T17:00:55.515Z,7.14
2022-09-28T17:03:23.504Z,7.20
2022-09-28T17:05:51.332Z,7.14
2022-09-28T17:08:21.605Z,7.03
2022-09-28T17:13:45.763Z,6.96
2022-09-28T17:16:18.431Z,7.03
2022-09-28T17:18:45.922Z,7.12
2022-09-28T17:21:21.576Z,7.07
2022-09-28T17:23:49.843Z,7.00
2022-09-28T17:26:19.578Z,6.95
2022-09-28T17:28:46.445Z,6.94
2022-09-28T17:31:16.057Z,6.96
2022-09-28T17:33:43.012Z,6.96
2022-09-28T17:36:13.963Z,6.98
2022-09-28T17:38:42.510Z,6.90
2022-09-28T17:41:20.935Z,6.93
2022-09-28T17:43:48.048Z,6.93
2022-09-28T17:46:22.638Z,6.98
2022-09-28T17:48:49.741Z,6.92
2022-09-28T17:51:16.376Z,6.94
2022-09-28T17:53:43.009Z,6.97
2022-09-28T17:56:09.875Z,7.01
2022-09-28T17:58:36.673Z,6.96
2022-09-28T18:01:03.228Z,6.92
2022-09-28T18:03:29.801Z,6.92
2022-09-28T18:06:04.379Z,6.91
2022-09-28T18:08:31.251Z,6.97
2022-09-28T18:10:57.871Z,6.99
2022-09-28T18:13:25.077Z,6.94
2022-09-28T18:15:52.913Z,6.92
2022-09-28T18:18:20.057Z,7.00
2022-09-28T18:20:46.617Z,6.99
2022-09-28T18:23:13.482Z,7.01
2022-09-28T18:25:44.710Z,6.98
2022-09-28T18:28:14.577Z,6.94
2022-09-28T18:30:43.484Z,6.95
2022-09-28T18:33:11.169Z,6.97
2022-09-28T18:35:38.243Z,6.99
2022-09-28T18:38:05.826Z,6.96
2022-09-28T18:40:34.049Z,6.92
2022-09-28T18:43:00.721Z,6.93
2022-09-28T18:45:27.308Z,6.93
2022-09-28T18:47:53.834Z,6.95
2022-09-28T18:50:20.372Z,6.95
2022-09-28T18:52:47.374Z,6.94
2022-09-28T18:55:14.073Z,6.92
2022-09-28T18:57:42.272Z,6.94
2022-09-28T19:00:11.884Z,6.90
2022-09-28T19:02:38.762Z,6.85
2022-09-28T19:05:06.226Z,6.87
2022-09-28T19:07:33.745Z,6.86
2022-09-28T19:10:00.322Z,6.90
2022-09-28T19:12:26.947Z,6.89
2022-09-28T19:14:53.599Z,6.85
2022-09-28T19:17:20.193Z,6.86
2022-09-28T19:19:46.769Z,6.87
2022-09-28T19:22:13.397Z,6.91
2022-09-28T19:24:42.240Z,6.89
2022-09-28T19:27:08.781Z,6.91
2022-09-28T19:29:35.325Z,6.89
2022-09-28T19:32:02.214Z,6.94
2022-09-28T19:34:30.152Z,6.90
2022-09-28T19:36:57.190Z,6.86
2022-09-28T19:39:23.788Z,6.82
2022-09-28T19:41:51.332Z,6.84
2022-09-28T19:44:25.230Z,6.78
2022-09-28T19:46:55.250Z,6.81
2022-09-28T19:49:23.661Z,6.88
2022-09-28T19:52:12.283Z,6.89
2022-09-28T19:54:39.718Z,6.88
2022-09-28T19:57:08.365Z,6.87
2022-09-28T19:59:36.892Z,6.83
2022-09-28T20:02:05.246Z,6.80
2022-09-28T20:04:31.820Z,6.78
2022-09-28T20:06:58.388Z,6.78
2022-09-28T20:09:25.010Z,6.81
2022-09-28T20:11:51.918Z,6.80
2022-09-28T20:14:18.932Z,6.79
2022-09-28T20:16:46.303Z,6.76
2022-09-28T20:19:13.016Z,6.73
2022-09-28T20:21:39.547Z,6.69
2022-09-28T20:24:06.216Z,6.72
2022-09-28T20:26:37.628Z,6.72
2022-09-28T20:29:06.669Z,6.72
2022-09-28T20:31:38.007Z,6.68
2022-09-28T20:34:06.427Z,6.70
2022-09-28T20:36:33.588Z,6.70
2022-09-28T20:39:03.990Z,6.75
2022-09-28T20:41:36.493Z,6.73
2022-09-28T20:44:06.194Z,6.72
2022-09-28T20:46:34.634Z,6.72
2022-09-28T20:49:01.598Z,6.71
2022-09-28T20:51:28.207Z,6.76
2022-09-28T20:53:57.189Z,6.79
2022-09-28T20:56:23.763Z,6.77
2022-09-28T20:58:51.329Z,6.81
2022-09-28T21:01:20.743Z,6.84
2022-09-28T21:03:55.861Z,6.81
2022-09-28T21:06:25.212Z,6.80
2022-09-28T21:08:52.612Z,6.84
2022-09-28T21:11:24.200Z,6.85
2022-09-28T21:13:55.765Z,6.84
2022-09-28T21:16:22.245Z,6.87
2022-09-28T21:18:48.788Z,6.88
2022-09-28T21:21:17.770Z,6.91
2022-09-28T21:23:44.902Z,6.86
2022-09-28T21:26:12.775Z,6.84
2022-09-28T21:28:39.808Z,6.87
2022-09-28T21:31:09.531Z,6.86
2022-09-28T21:33:36.558Z,6.91
2022-09-28T21:36:05.208Z,6.86
2022-09-28T21:38:32.378Z,6.89
2022-09-28T21:41:00.156Z,6.87
2022-09-28T21:43:28.113Z,6.88
2022-09-28T21:45:55.835Z,6.87
2022-09-28T21:48:26.019Z,6.84
2022-09-28T21:51:00.801Z,6.84
2022-09-28T21:53:30.153Z,6.85
2022-09-28T21:55:58.041Z,6.93
2022-09-28T21:58:27.628Z,6.94
2022-09-28T22:01:01.319Z,6.92
2022-09-28T22:03:29.057Z,6.93
2022-09-28T22:05:55.597Z,6.94
2022-09-28T22:08:22.457Z,6.97
2022-09-28T22:11:07.803Z,7.07
2022-09-28T22:13:46.609Z,7.05
2022-09-28T22:16:15.474Z,7.02
2022-09-28T22:18:42.415Z,6.99
2022-09-28T22:21:16.723Z,6.99
2022-09-28T22:23:43.465Z,7.00
2022-09-28T22:26:20.046Z,7.02
2022-09-28T22:28:49.430Z,7.00
2022-09-28T22:31:17.925Z,6.92
2022-09-28T22:33:44.599Z,7.07
2022-09-28T22:36:11.433Z,7.07
2022-09-28T22:38:39.666Z,7.12
2022-09-28T22:41:06.322Z,7.11
2022-09-28T22:43:33.150Z,7.14
2022-09-28T22:46:11.427Z,7.12
2022-09-28T22:48:38.478Z,7.16
2022-09-28T22:51:06.756Z,7.14
2022-09-28T22:53:34.551Z,7.02
2022-09-28T22:56:04.850Z,6.96
2022-09-28T22:58:35.754Z,6.97
2022-09-28T23:01:17.264Z,6.93
2022-09-28T23:03:44.773Z,6.90
2022-09-28T23:06:13.497Z,6.96
2022-09-28T23:08:40.110Z,6.91
2022-09-28T23:11:07.016Z,6.88
2022-09-28T23:13:35.049Z,6.87
2022-09-28T23:16:04.185Z,6.87
2022-09-28T23:18:33.434Z,6.87
2022-09-28T23:21:02.161Z,6.87
2022-09-28T23:23:28.790Z,6.84
2022-09-28T23:25:55.711Z,6.85
2022-09-28T23:28:24.184Z,6.83
2022-09-28T23:30:51.263Z,6.82
2022-09-28T23:33:20.002Z,6.83
2022-09-28T23:35:49.693Z,6.78
2022-09-28T23:38:18.210Z,6.78
2022-09-28T23:40:46.374Z,6.77
2022-09-28T23:43:13.555Z,6.80
2022-09-28T23:45:42.623Z,6.79
2022-09-28T23:48:09.239Z,6.78
2022-09-28T23:50:35.943Z,6.79
2022-09-28T23:53:02.487Z,6.77
2022-09-28T23:55:29.285Z,6.74
2022-09-28T23:57:56.691Z,6.69
